Ashwood, Oregon
Current Conditions -  °F | °C
As of 8:15 AM on Thursday 23 Oct 2014 (Local Time) from KS39 Reporting Station
Overcast Overcast  
Wind Chill: 55°   Ceiling: 7000
Heat Index: 55°   Visibility: 10mi
Dew Point: 45°   Wind: 13mph
Humidity: 67%   Direction: 180°S
Pressure: 29.84"   Gusts: 20mph
Location:  44.73°N, 120.76°W
Report Text: KS39 231515Z AUTO 18011G17KT 10SM FEW044 OVC070 13/07 A2984 RMK AO2
Loading
Personal Weather Stations






























Interactive Weather Map
Tropical Storm Tracking
New forecast layout! Learn more

10-Day Weather Forecast

Advertisements
Track Severe Weather on mobile